createdAt,value
2023-03-01T00:00:32.374Z,25.70
2023-03-01T00:01:32.358Z,23.20
2023-03-01T00:03:42.621Z,22.90
2023-03-01T00:04:42.636Z,24.50
2023-03-01T00:05:42.562Z,28.10
2023-03-01T00:06:42.611Z,27.10
2023-03-01T00:07:42.545Z,27.20
2023-03-01T00:08:42.550Z,22.80
2023-03-01T00:09:42.535Z,26.60
2023-03-01T00:10:42.547Z,24.70
2023-03-01T00:11:42.674Z,24.60
2023-03-01T00:12:42.487Z,27.10
2023-03-01T00:13:42.479Z,26.20
2023-03-01T00:14:42.481Z,25.70
2023-03-01T00:15:42.478Z,25.00
2023-03-01T00:16:42.477Z,25.10
2023-03-01T00:17:42.451Z,26.30
2023-03-01T00:18:42.432Z,24.60
2023-03-01T00:19:42.419Z,24.30
2023-03-01T00:20:42.424Z,24.50
2023-03-01T00:21:42.444Z,24.90
2023-03-01T00:22:42.388Z,28.00
2023-03-01T00:23:42.373Z,26.80
2023-03-01T00:24:42.386Z,27.70
2023-03-01T00:25:42.349Z,25.60
2023-03-01T00:26:42.352Z,28.80
2023-03-01T00:27:42.339Z,28.20
2023-03-01T00:28:42.330Z,27.00
2023-03-01T00:29:42.320Z,24.00
2023-03-01T00:30:42.372Z,25.70
2023-03-01T00:31:42.295Z,27.20
2023-03-01T00:32:42.282Z,28.50
2023-03-01T00:33:42.273Z,29.60
2023-03-01T00:34:42.264Z,27.90
2023-03-01T00:35:42.274Z,26.80
2023-03-01T00:36:42.298Z,26.00
2023-03-01T00:37:42.236Z,28.40
2023-03-01T00:38:42.245Z,28.30
2023-03-01T00:39:42.212Z,26.50
2023-03-01T00:40:42.252Z,29.70
2023-03-01T00:41:42.194Z,30.10
2023-03-01T00:42:42.189Z,24.80
2023-03-01T00:43:42.175Z,28.10
2023-03-01T00:44:42.170Z,29.30
2023-03-01T00:45:42.168Z,29.10
2023-03-01T00:46:42.149Z,25.50
2023-03-01T00:47:42.140Z,27.10
2023-03-01T00:48:42.132Z,30.50
2023-03-01T00:49:42.114Z,27.00
2023-03-01T00:50:42.117Z,26.90
2023-03-01T00:51:42.099Z,26.70
2023-03-01T00:52:42.088Z,26.00
2023-03-01T00:53:42.068Z,27.00
2023-03-01T00:54:42.059Z,33.10
2023-03-01T00:55:42.104Z,30.60
2023-03-01T00:56:42.040Z,36.60
2023-03-01T00:57:42.054Z,31.80
2023-03-01T00:58:42.029Z,29.40
2023-03-01T00:59:42.006Z,30.30
2023-03-01T01:00:42.017Z,24.10
2023-03-01T01:01:42.005Z,24.60
2023-03-01T01:02:42.022Z,24.40
2023-03-01T01:03:41.963Z,25.80
2023-03-01T01:04:41.959Z,25.40
2023-03-01T01:05:41.973Z,25.90
2023-03-01T01:06:41.938Z,22.60
2023-03-01T01:07:41.918Z,26.00
2023-03-01T01:08:41.913Z,27.80
2023-03-01T01:09:41.900Z,28.20
2023-03-01T01:10:41.898Z,29.40
2023-03-01T01:11:41.932Z,25.60
2023-03-01T01:12:41.898Z,27.30
2023-03-01T01:13:41.858Z,24.50
2023-03-01T01:14:41.850Z,25.10
2023-03-01T01:15:41.934Z,23.70
2023-03-01T01:16:41.855Z,25.80
2023-03-01T01:17:41.845Z,21.80
2023-03-01T01:18:41.810Z,22.60
2023-03-01T01:19:41.823Z,20.90
2023-03-01T01:20:41.801Z,21.90
2023-03-01T01:21:41.789Z,25.20
2023-03-01T01:22:41.759Z,21.70
2023-03-01T01:23:41.744Z,21.40
2023-03-01T01:24:41.739Z,20.70
2023-03-01T01:25:41.730Z,24.10
2023-03-01T01:26:41.731Z,24.00
2023-03-01T01:27:41.705Z,24.40
2023-03-01T01:28:41.698Z,24.40
2023-03-01T01:29:41.683Z,28.00
2023-03-01T01:30:41.674Z,29.70
2023-03-01T01:31:41.675Z,33.40
2023-03-01T01:32:41.663Z,34.30
2023-03-01T01:33:41.641Z,34.60
2023-03-01T01:34:41.631Z,31.00
2023-03-01T01:35:41.740Z,30.20
2023-03-01T01:36:41.631Z,27.20
2023-03-01T01:37:41.611Z,26.70
2023-03-01T01:38:41.590Z,22.70
2023-03-01T01:39:41.575Z,24.70
2023-03-01T01:40:41.573Z,25.00
2023-03-01T01:41:41.567Z,24.20
2023-03-01T01:42:41.555Z,25.40
2023-03-01T01:43:41.532Z,25.10
2023-03-01T01:44:41.526Z,24.40
2023-03-01T01:45:41.517Z,23.70
2023-03-01T01:46:41.569Z,24.10
2023-03-01T01:47:41.496Z,23.50
2023-03-01T01:48:41.481Z,25.60
2023-03-01T01:49:41.476Z,25.80
2023-03-01T01:50:41.481Z,24.20
2023-03-01T01:51:41.461Z,20.60
2023-03-01T01:52:41.436Z,22.00
2023-03-01T01:53:41.427Z,23.50
2023-03-01T01:54:41.413Z,23.20
2023-03-01T01:55:41.407Z,24.00
2023-03-01T01:56:41.418Z,24.90
2023-03-01T01:57:41.386Z,23.60
2023-03-01T01:58:41.367Z,24.70
2023-03-01T01:59:41.361Z,25.90
2023-03-01T02:00:41.359Z,26.30
2023-03-01T02:01:41.340Z,24.60
2023-03-01T02:02:41.432Z,27.00
2023-03-01T02:03:41.455Z,24.60
2023-03-01T02:04:41.307Z,29.00
2023-03-01T02:05:41.303Z,27.80
2023-03-01T02:06:41.302Z,27.30
2023-03-01T02:07:41.291Z,27.30
2023-03-01T02:08:41.265Z,25.10
2023-03-01T02:09:41.248Z,23.70
2023-03-01T02:10:41.242Z,25.50
2023-03-01T02:11:41.234Z,26.60
2023-03-01T02:12:41.229Z,23.10
2023-03-01T02:13:41.213Z,23.00
2023-03-01T02:14:41.198Z,24.50
2023-03-01T02:15:41.189Z,28.80
2023-03-01T02:16:41.175Z,26.70
2023-03-01T02:17:41.187Z,21.70
2023-03-01T02:18:41.162Z,23.90
2023-03-01T02:19:41.153Z,23.80
2023-03-01T02:20:41.133Z,23.10
2023-03-01T02:21:41.126Z,23.00
2023-03-01T02:22:41.134Z,20.50
2023-03-01T02:23:41.107Z,23.40
2023-03-01T02:24:41.094Z,24.80
2023-03-01T02:25:41.090Z,27.90
2023-03-01T02:26:41.075Z,26.20
2023-03-01T02:27:41.086Z,23.80
2023-03-01T02:28:41.051Z,22.20
2023-03-01T02:29:41.045Z,23.20
2023-03-01T02:30:41.041Z,25.00
2023-03-01T02:31:41.078Z,22.80
2023-03-01T02:32:41.028Z,24.00
2023-03-01T02:33:40.999Z,23.10
2023-03-01T02:34:41.004Z,30.60
2023-03-01T02:35:40.999Z,21.90
2023-03-01T02:36:40.981Z,20.50
2023-03-01T02:37:40.972Z,23.90
2023-03-01T02:38:40.952Z,23.70
2023-03-01T02:39:40.950Z,23.70
2023-03-01T02:40:40.930Z,26.00
2023-03-01T02:41:40.914Z,23.70
2023-03-01T02:45:32.886Z,22.60
2023-03-01T02:46:33.313Z,22.90
2023-03-01T02:47:32.865Z,28.60
2023-03-01T02:48:32.846Z,25.90
2023-03-01T02:49:32.837Z,26.10
2023-03-01T02:50:32.826Z,26.40
2023-03-01T02:51:32.820Z,24.50
2023-03-01T02:52:32.795Z,24.70
2023-03-01T02:53:32.809Z,27.10
2023-03-01T02:54:32.776Z,30.00
2023-03-01T02:55:32.771Z,25.30
2023-03-01T02:56:32.930Z,27.20
2023-03-01T02:57:32.745Z,29.60
2023-03-01T02:58:32.745Z,29.70
2023-03-01T02:59:32.726Z,28.00
2023-03-01T03:00:32.721Z,28.70
2023-03-01T03:01:32.706Z,30.90
2023-03-01T03:02:32.691Z,31.70
2023-03-01T03:03:32.723Z,32.90
2023-03-01T03:04:32.687Z,32.90
2023-03-01T03:05:32.660Z,28.60
2023-03-01T03:06:32.745Z,30.90
2023-03-01T03:07:32.644Z,28.30
2023-03-01T03:08:32.674Z,30.50
2023-03-01T03:09:32.624Z,28.40
2023-03-01T03:10:32.604Z,24.00
2023-03-01T03:11:32.595Z,25.40
2023-03-01T03:12:32.582Z,24.80
2023-03-01T03:13:32.582Z,22.90
2023-03-01T03:14:32.556Z,23.60
2023-03-01T03:15:32.561Z,24.60
2023-03-01T03:16:32.965Z,25.00
2023-03-01T03:17:32.535Z,25.80
2023-03-01T03:18:32.535Z,26.50
2023-03-01T03:19:32.517Z,26.00
2023-03-01T03:20:32.508Z,30.80
2023-03-01T03:21:32.495Z,24.30
2023-03-01T03:22:32.474Z,25.20
2023-03-01T03:23:32.474Z,25.70
2023-03-01T03:24:32.492Z,26.40
2023-03-01T03:25:32.447Z,27.60
2023-03-01T03:26:32.691Z,25.50
2023-03-01T03:27:32.497Z,24.30
2023-03-01T03:28:32.435Z,30.10
2023-03-01T03:29:32.411Z,28.10
2023-03-01T03:30:32.408Z,28.90
2023-03-01T03:31:32.440Z,30.00
2023-03-01T03:32:32.440Z,30.80
2023-03-01T03:33:32.375Z,27.00
2023-03-01T03:34:32.354Z,26.30
2023-03-01T03:35:32.401Z,26.20
2023-03-01T03:36:32.504Z,27.40
2023-03-01T03:37:32.316Z,29.80
2023-03-01T03:38:32.316Z,30.40
2023-03-01T03:39:32.296Z,33.10
2023-03-01T03:40:32.288Z,27.20
2023-03-01T03:41:32.275Z,28.70
2023-03-01T03:42:32.267Z,29.10
2023-03-01T03:43:32.277Z,31.30
2023-03-01T03:44:32.260Z,31.00
2023-03-01T03:45:32.282Z,31.00
2023-03-01T03:46:32.707Z,30.70
2023-03-01T03:47:32.258Z,29.00
2023-03-01T03:48:32.260Z,28.50
2023-03-01T03:49:32.191Z,26.10
2023-03-01T03:50:32.183Z,25.50
2023-03-01T03:51:32.174Z,27.40
2023-03-01T03:52:32.156Z,23.30
2023-03-01T03:53:32.163Z,28.70
2023-03-01T03:54:32.136Z,27.40
2023-03-01T03:55:32.147Z,26.70
2023-03-01T03:56:32.489Z,28.90
2023-03-01T03:57:32.107Z,28.00
2023-03-01T03:58:32.113Z,27.40
2023-03-01T03:59:32.124Z,27.20
2023-03-01T04:00:32.070Z,24.90
2023-03-01T04:01:32.104Z,26.80
2023-03-01T04:02:32.116Z,26.60
2023-03-01T04:03:32.061Z,25.50
2023-03-01T04:04:32.031Z,27.00
2023-03-01T04:05:32.021Z,25.70
2023-03-01T04:06:32.312Z,27.70
2023-03-01T04:07:31.998Z,27.90
2023-03-01T04:08:32.000Z,26.30
2023-03-01T04:09:31.982Z,29.50
2023-03-01T04:10:31.970Z,26.90
2023-03-01T04:11:31.964Z,26.60
2023-03-01T04:12:31.951Z,27.90
2023-03-01T04:13:31.953Z,27.90
2023-03-01T04:14:31.932Z,29.90
2023-03-01T04:15:31.922Z,29.40
2023-03-01T04:16:32.459Z,32.10
2023-03-01T04:17:31.901Z,29.70
2023-03-01T04:18:31.899Z,31.60
2023-03-01T04:19:31.885Z,30.70
2023-03-01T04:20:31.874Z,28.50
2023-03-01T04:21:31.867Z,25.30
2023-03-01T04:22:31.842Z,27.70
2023-03-01T04:23:31.841Z,24.00
2023-03-01T04:24:31.836Z,24.60
2023-03-01T04:25:31.815Z,26.10
2023-03-01T04:26:32.138Z,27.30
2023-03-01T04:27:31.792Z,26.20
2023-03-01T04:28:31.780Z,25.50
2023-03-01T04:29:31.783Z,22.70
2023-03-01T04:30:31.757Z,21.70
2023-03-01T04:31:31.811Z,23.30
2023-03-01T04:32:31.838Z,23.00
2023-03-01T04:33:31.732Z,27.20
2023-03-01T04:34:31.728Z,25.20
2023-03-01T04:35:31.803Z,25.80
2023-03-01T04:36:32.093Z,29.90
2023-03-01T04:37:31.686Z,24.10
2023-03-01T04:38:31.673Z,28.40
2023-03-01T04:39:31.674Z,27.30
2023-03-01T04:40:31.655Z,26.90
2023-03-01T04:41:31.657Z,26.50
2023-03-01T04:42:31.624Z,26.90
2023-03-01T04:43:31.620Z,24.10
2023-03-01T04:44:31.626Z,26.60
2023-03-01T04:45:31.611Z,27.30
2023-03-01T04:46:31.858Z,26.30
2023-03-01T04:47:31.579Z,27.10
2023-03-01T04:48:31.572Z,27.80
2023-03-01T04:49:31.569Z,30.50
2023-03-01T04:50:31.565Z,28.80
2023-03-01T04:51:31.537Z,30.30
2023-03-01T04:52:31.552Z,30.50
2023-03-01T04:53:31.510Z,32.80
2023-03-01T04:54:31.518Z,31.10
2023-03-01T04:55:31.494Z,28.20
2023-03-01T04:56:31.817Z,29.60
2023-03-01T04:57:31.475Z,32.00
2023-03-01T04:58:31.465Z,30.00
2023-03-01T04:59:31.470Z,30.90
2023-03-01T05:00:31.440Z,28.30
2023-03-01T05:01:31.442Z,31.30
2023-03-01T05:02:31.443Z,27.40
2023-03-01T05:03:31.408Z,29.90
2023-03-01T05:04:31.479Z,31.30
2023-03-01T05:05:31.393Z,30.50
2023-03-01T05:06:31.719Z,28.90
2023-03-01T05:07:31.363Z,30.50
2023-03-01T05:08:31.351Z,26.90
2023-03-01T05:09:31.356Z,25.60
2023-03-01T05:10:31.329Z,28.80
2023-03-01T05:11:31.333Z,27.60
2023-03-01T05:12:31.315Z,26.10
2023-03-01T05:13:31.308Z,29.20
2023-03-01T05:14:31.301Z,29.00
2023-03-01T05:15:31.361Z,25.70
2023-03-01T05:16:33.015Z,28.40
2023-03-01T05:17:31.262Z,27.10
2023-03-01T05:18:31.249Z,25.00
2023-03-01T05:19:31.249Z,27.10
2023-03-01T05:20:31.236Z,27.70
2023-03-01T05:21:32.400Z,27.20
2023-03-01T05:22:32.354Z,28.50
2023-03-01T05:23:32.343Z,25.10
2023-03-01T05:24:32.375Z,23.70
2023-03-01T05:25:32.335Z,27.40
2023-03-01T05:26:32.353Z,26.90
2023-03-01T05:27:32.327Z,26.10
2023-03-01T05:28:32.301Z,25.70
2023-03-01T05:29:32.307Z,27.00
2023-03-01T05:30:32.338Z,28.60
2023-03-01T05:31:32.364Z,26.60
2023-03-01T05:32:32.274Z,26.70
2023-03-01T05:33:32.252Z,28.60
2023-03-01T05:34:32.272Z,30.60
2023-03-01T05:35:32.273Z,30.30
2023-03-01T05:36:32.645Z,27.20
2023-03-01T05:37:32.214Z,26.90
2023-03-01T05:38:32.196Z,25.20
2023-03-01T05:39:32.212Z,30.10
2023-03-01T05:40:32.175Z,27.70
2023-03-01T05:41:32.195Z,28.80
2023-03-01T05:42:32.145Z,28.60
2023-03-01T05:43:32.178Z,27.00
2023-03-01T05:44:32.194Z,31.20
2023-03-01T05:45:32.128Z,27.20
2023-03-01T05:46:32.480Z,25.90
2023-03-01T05:47:32.115Z,29.00
2023-03-01T05:48:32.115Z,29.40
2023-03-01T05:49:32.109Z,29.50
2023-03-01T05:50:32.070Z,32.00
2023-03-01T05:51:33.093Z,31.10
2023-03-01T05:52:32.070Z,28.00
2023-03-01T05:53:32.061Z,32.10
2023-03-01T05:54:32.062Z,27.20
2023-03-01T05:55:32.044Z,34.50
2023-03-01T05:56:32.430Z,32.50
2023-03-01T05:57:32.018Z,29.70
2023-03-01T05:58:32.015Z,29.50
2023-03-01T05:59:32.033Z,30.10
2023-03-01T06:00:31.990Z,28.00
2023-03-01T06:01:31.985Z,28.10
2023-03-01T06:02:32.009Z,30.80
2023-03-01T06:03:31.967Z,31.40
2023-03-01T06:04:32.007Z,31.70
2023-03-01T06:05:32.046Z,32.60
2023-03-01T06:06:32.281Z,36.70
2023-03-01T06:07:31.921Z,34.00
2023-03-01T06:08:31.914Z,30.60
2023-03-01T06:09:31.942Z,30.70
2023-03-01T06:10:31.882Z,30.30
2023-03-01T06:11:31.879Z,27.70
2023-03-01T06:12:31.865Z,30.60
2023-03-01T06:13:31.889Z,34.00
2023-03-01T06:14:31.862Z,33.20
2023-03-01T06:15:31.895Z,32.50
2023-03-01T06:16:32.368Z,33.80
2023-03-01T06:17:31.817Z,32.20
2023-03-01T06:18:31.824Z,34.50
2023-03-01T06:19:31.828Z,32.80
2023-03-01T06:20:31.828Z,30.20
2023-03-01T06:21:31.809Z,32.30
2023-03-01T06:22:31.786Z,30.00
2023-03-01T06:23:31.760Z,32.20
2023-03-01T06:24:31.762Z,33.50
2023-03-01T06:25:31.756Z,31.80
2023-03-01T06:26:32.001Z,30.30
2023-03-01T06:27:31.730Z,34.70
2023-03-01T06:28:31.719Z,36.80
2023-03-01T06:29:31.771Z,33.80
2023-03-01T06:30:31.734Z,34.70
2023-03-01T06:31:31.902Z,36.20
2023-03-01T06:32:31.741Z,31.90
2023-03-01T06:33:31.727Z,26.00
2023-03-01T06:34:31.822Z,25.70
2023-03-01T06:35:31.760Z,26.80
2023-03-01T06:36:32.103Z,27.70
2023-03-01T06:37:31.650Z,26.50
2023-03-01T06:38:31.600Z,30.30
2023-03-01T06:39:31.647Z,29.30
2023-03-01T06:40:31.612Z,29.00
2023-03-01T06:41:31.578Z,27.70
2023-03-01T06:42:31.568Z,28.20
2023-03-01T06:43:31.554Z,27.30
2023-03-01T06:44:31.566Z,28.60
2023-03-01T06:45:32.548Z,29.00
2023-03-01T06:46:31.945Z,31.70
2023-03-01T06:47:31.538Z,28.10
2023-03-01T06:48:31.517Z,29.40
2023-03-01T06:49:31.506Z,26.00
2023-03-01T06:50:31.553Z,27.40
2023-03-01T06:51:31.472Z,26.60
2023-03-01T06:52:31.481Z,26.50
2023-03-01T06:53:31.482Z,29.10
2023-03-01T06:54:31.458Z,25.80
2023-03-01T06:55:31.435Z,23.60
2023-03-01T06:56:31.722Z,26.70
2023-03-01T06:57:31.413Z,27.20
2023-03-01T06:58:31.414Z,25.40
2023-03-01T06:59:31.444Z,24.40
2023-03-01T07:00:31.504Z,25.40
2023-03-01T07:01:31.441Z,27.30
2023-03-01T07:02:31.446Z,27.60
2023-03-01T07:03:32.044Z,26.40
2023-03-01T07:04:31.377Z,25.40
2023-03-01T07:05:31.398Z,27.10
2023-03-01T07:06:31.810Z,26.00
2023-03-01T07:07:31.388Z,28.10
2023-03-01T07:08:31.335Z,24.80
2023-03-01T07:09:31.303Z,25.60
2023-03-01T07:10:31.360Z,27.40
2023-03-01T07:11:31.330Z,25.30
2023-03-01T07:12:31.318Z,24.80
2023-03-01T07:13:31.287Z,26.30
2023-03-01T07:14:31.248Z,23.80
2023-03-01T07:15:31.251Z,24.20
2023-03-01T07:16:31.940Z,25.50
2023-03-01T07:17:31.345Z,23.70
2023-03-01T07:18:31.274Z,24.80
2023-03-01T07:19:31.266Z,23.60
2023-03-01T07:20:31.274Z,22.40
2023-03-01T07:21:31.205Z,22.50
2023-03-01T07:22:31.247Z,22.70
2023-03-01T07:23:31.259Z,24.30
2023-03-01T07:24:31.293Z,23.10
2023-03-01T07:25:31.207Z,24.70
2023-03-01T07:26:31.474Z,22.20
2023-03-01T07:27:31.207Z,23.30
2023-03-01T07:28:31.237Z,21.40
2023-03-01T07:29:31.142Z,22.90
2023-03-01T07:30:31.160Z,22.10
2023-03-01T07:31:31.145Z,25.00
2023-03-01T07:32:31.179Z,22.40
2023-03-01T07:33:31.165Z,23.20
2023-03-01T07:35:57.072Z,22.40
2023-03-01T07:35:58.797Z,22.70
2023-03-01T07:36:58.799Z,21.30
2023-03-01T07:37:58.765Z,22.80
2023-03-01T07:38:58.677Z,20.90
2023-03-01T07:39:58.707Z,23.10
2023-03-01T07:40:58.691Z,21.20
2023-03-01T07:41:59.099Z,20.90
2023-03-01T07:42:58.640Z,21.30
2023-03-01T07:43:58.687Z,20.90
2023-03-01T07:44:58.703Z,21.30
2023-03-01T07:45:58.722Z,22.10
2023-03-01T07:46:58.617Z,22.80
2023-03-01T07:47:58.564Z,19.50
2023-03-01T07:48:58.605Z,19.30
2023-03-01T07:49:58.584Z,19.20
2023-03-01T07:50:58.560Z,21.00
2023-03-01T07:51:58.522Z,20.70
2023-03-01T07:52:58.565Z,20.00
2023-03-01T07:53:59.578Z,19.10
2023-03-01T07:54:58.588Z,17.70
2023-03-01T07:55:58.555Z,20.30
2023-03-01T07:56:58.554Z,19.00
2023-03-01T07:57:58.462Z,17.30
2023-03-01T07:58:59.667Z,17.40
2023-03-01T07:59:58.487Z,17.40
2023-03-01T08:00:58.448Z,19.80
2023-03-01T08:01:58.487Z,17.70
2023-03-01T08:02:58.446Z,17.80
2023-03-01T08:03:58.440Z,18.70
2023-03-01T08:04:58.509Z,16.60
2023-03-01T08:05:58.592Z,16.50
2023-03-01T08:06:58.410Z,18.60
2023-03-01T08:07:58.380Z,18.70
2023-03-01T08:08:58.379Z,17.90
2023-03-01T08:09:58.342Z,16.90
2023-03-01T08:10:58.464Z,17.50
2023-03-01T08:11:58.448Z,17.40
2023-03-01T08:12:58.383Z,17.60
2023-03-01T08:13:58.420Z,17.80
2023-03-01T08:14:58.319Z,16.70
2023-03-01T08:15:58.362Z,15.60
2023-03-01T08:16:58.405Z,18.60
2023-03-01T08:17:58.279Z,19.00
2023-03-01T08:18:58.288Z,18.30
2023-03-01T08:19:58.294Z,17.10
2023-03-01T08:20:58.264Z,16.50
2023-03-01T08:21:58.316Z,16.40
2023-03-01T08:22:58.407Z,18.70
2023-03-01T08:23:58.216Z,18.00
2023-03-01T08:24:58.249Z,20.00
2023-03-01T08:25:58.204Z,17.70
2023-03-01T08:26:58.202Z,17.60
2023-03-01T08:27:58.159Z,16.80
2023-03-01T08:28:58.220Z,18.70
2023-03-01T08:29:58.200Z,18.80
2023-03-01T08:30:58.138Z,16.60
2023-03-01T08:31:58.189Z,18.10
2023-03-01T08:32:58.212Z,20.30
2023-03-01T08:33:58.172Z,18.10
2023-03-01T08:34:58.120Z,18.10
2023-03-01T08:35:58.286Z,19.00
2023-03-01T08:36:58.114Z,17.40
2023-03-01T08:37:58.102Z,17.60
2023-03-01T08:38:58.108Z,17.90
2023-03-01T08:39:58.142Z,17.60
2023-03-01T08:40:58.097Z,17.00
2023-03-01T08:41:58.084Z,20.20
2023-03-01T08:42:58.077Z,16.90
2023-03-01T08:43:58.059Z,17.00
2023-03-01T08:44:58.355Z,16.40
2023-03-01T08:45:58.101Z,17.80
2023-03-01T08:46:58.332Z,16.50
2023-03-01T08:47:58.077Z,18.00
2023-03-01T08:48:58.034Z,15.90
2023-03-01T08:49:57.959Z,15.00
2023-03-01T08:50:57.990Z,17.70
2023-03-01T08:51:58.023Z,14.40
2023-03-01T08:52:57.976Z,14.90
2023-03-01T08:53:57.939Z,16.70
2023-03-01T08:54:57.938Z,16.10
2023-03-01T08:55:57.991Z,14.20
2023-03-01T08:56:57.946Z,15.80
2023-03-01T08:57:57.920Z,15.60
2023-03-01T08:58:57.898Z,15.20
2023-03-01T08:59:57.902Z,16.00
2023-03-01T09:00:57.905Z,14.70
2023-03-01T09:01:58.662Z,15.60
2023-03-01T09:02:57.916Z,15.30
2023-03-01T09:03:57.905Z,15.70
2023-03-01T09:04:57.858Z,15.20
2023-03-01T09:05:57.850Z,14.60
2023-03-01T09:06:57.783Z,14.80
2023-03-01T09:07:57.921Z,15.40
2023-03-01T09:08:57.794Z,14.60
2023-03-01T09:09:57.773Z,15.20
2023-03-01T09:10:57.794Z,14.60
2023-03-01T09:11:57.801Z,16.10
2023-03-01T09:12:57.756Z,13.10
2023-03-01T09:13:57.715Z,15.70
2023-03-01T09:14:57.722Z,14.90
2023-03-01T09:15:57.699Z,15.70
2023-03-01T09:16:57.791Z,12.50
2023-03-01T09:17:57.695Z,15.30
2023-03-01T09:18:57.646Z,14.90
2023-03-01T09:19:57.654Z,15.00
2023-03-01T09:20:57.688Z,16.30
2023-03-01T09:21:57.685Z,14.70
2023-03-01T09:22:57.667Z,13.30
2023-03-01T09:23:57.618Z,13.80
2023-03-01T09:24:57.662Z,13.20
2023-03-01T09:25:57.603Z,13.70
2023-03-01T09:26:57.609Z,14.70
2023-03-01T09:27:57.548Z,15.00
2023-03-01T09:28:57.624Z,14.00
2023-03-01T09:30:03.024Z,14.30
2023-03-01T09:30:58.675Z,14.30
2023-03-01T09:31:57.615Z,12.30
2023-03-01T09:32:57.541Z,13.80
2023-03-01T09:33:57.596Z,12.80
2023-03-01T09:34:57.552Z,13.90
2023-03-01T09:35:57.591Z,13.10
2023-03-01T09:36:57.599Z,12.80
2023-03-01T09:37:57.489Z,14.30
2023-03-01T09:38:58.070Z,12.20
2023-03-01T09:39:57.549Z,14.80
2023-03-01T09:41:03.643Z,14.10
2023-03-01T09:42:10.770Z,13.60
2023-03-01T09:43:12.789Z,12.80
2023-03-01T09:43:58.489Z,14.30
2023-03-01T09:44:57.515Z,13.90
2023-03-01T09:45:57.490Z,13.40
2023-03-01T09:46:57.540Z,14.20
2023-03-01T09:47:57.405Z,14.80
2023-03-01T09:48:57.753Z,13.70
2023-03-01T09:49:57.519Z,12.80
2023-03-01T09:50:57.479Z,12.10
2023-03-01T09:51:57.538Z,13.70
2023-03-01T09:52:57.376Z,13.70
2023-03-01T09:53:57.361Z,11.90
2023-03-01T09:54:59.611Z,13.00
2023-03-01T09:55:58.337Z,13.10
2023-03-01T09:56:57.359Z,15.50
2023-03-01T09:57:57.349Z,12.00
2023-03-01T09:58:58.764Z,13.10
2023-03-01T09:59:57.330Z,13.50
2023-03-01T10:00:57.354Z,15.10
2023-03-01T10:01:57.268Z,12.50
2023-03-01T10:02:57.331Z,12.90
2023-03-01T10:03:57.386Z,13.80
2023-03-01T10:04:57.305Z,13.50
2023-03-01T10:05:57.983Z,12.00
2023-03-01T10:06:57.302Z,13.40
2023-03-01T10:07:57.294Z,12.50
2023-03-01T10:08:57.282Z,13.70
2023-03-01T10:09:57.373Z,12.90
2023-03-01T10:10:57.340Z,14.00
2023-03-01T10:11:57.300Z,15.70
2023-03-01T10:12:57.654Z,13.40
2023-03-01T10:13:57.451Z,13.60
2023-03-01T10:21:44.033Z,12.00
2023-03-01T10:22:16.033Z,14.10
2023-03-01T10:23:18.591Z,12.00
2023-03-01T10:24:17.425Z,13.40
2023-03-01T10:25:25.412Z,14.30
2023-03-01T10:26:14.854Z,13.60
2023-03-01T10:27:14.864Z,11.50
2023-03-01T10:28:14.832Z,13.40
2023-03-01T10:29:14.821Z,12.10
2023-03-01T10:30:14.824Z,12.30
2023-03-01T10:31:14.831Z,14.00
2023-03-01T10:32:14.805Z,13.20
2023-03-01T10:33:14.761Z,14.30
2023-03-01T10:34:14.753Z,13.50
2023-03-01T10:35:15.924Z,14.20
2023-03-01T10:36:14.753Z,14.20
2023-03-01T10:37:14.719Z,13.60
2023-03-01T10:38:14.725Z,13.70
2023-03-01T10:39:14.692Z,12.80
2023-03-01T10:40:14.694Z,12.70
2023-03-01T10:41:14.699Z,14.00
2023-03-01T10:42:14.756Z,14.70
2023-03-01T10:43:14.657Z,14.10
2023-03-01T10:44:14.677Z,14.20
2023-03-01T10:45:14.628Z,14.40
2023-03-01T10:46:14.700Z,13.50
2023-03-01T10:47:14.656Z,15.50
2023-03-01T10:48:14.622Z,12.50
2023-03-01T10:49:14.604Z,14.30
2023-03-01T10:50:14.633Z,13.10
2023-03-01T10:51:14.625Z,14.00
2023-03-01T10:52:14.589Z,13.80
2023-03-01T10:53:14.546Z,12.80
2023-03-01T10:54:14.531Z,12.90
2023-03-01T10:55:14.526Z,14.70
2023-03-01T10:56:14.548Z,13.50
2023-03-01T10:57:14.525Z,14.30
2023-03-01T10:58:14.497Z,13.10
2023-03-01T10:59:14.493Z,12.00
2023-03-01T11:00:14.488Z,13.10
2023-03-01T11:01:14.530Z,16.20
2023-03-01T11:02:24.041Z,12.00
2023-03-01T11:03:15.447Z,12.50
2023-03-01T11:04:14.522Z,12.10
2023-03-01T11:05:14.435Z,13.00
2023-03-01T11:06:14.408Z,12.10
2023-03-01T11:07:14.426Z,12.60
2023-03-01T11:08:14.384Z,12.00
2023-03-01T11:09:14.413Z,12.70
2023-03-01T11:10:14.426Z,12.00
2023-03-01T11:11:14.398Z,11.50
2023-03-01T11:12:14.390Z,11.20
2023-03-01T11:13:14.383Z,10.70
2023-03-01T11:14:25.887Z,11.50
2023-03-01T11:15:15.356Z,10.50
2023-03-01T11:16:14.357Z,10.80
2023-03-01T11:17:14.336Z,11.00
2023-03-01T11:18:14.564Z,11.10
2023-03-01T11:19:14.283Z,12.90
2023-03-01T11:20:14.298Z,12.00
2023-03-01T11:21:14.281Z,10.70
2023-03-01T11:22:14.325Z,12.10
2023-03-01T11:23:14.309Z,12.00
2023-03-01T11:24:14.245Z,11.20
2023-03-01T11:25:14.241Z,12.00
2023-03-01T11:26:14.217Z,11.80
2023-03-01T11:27:14.222Z,11.40
2023-03-01T11:28:14.189Z,11.40
2023-03-01T11:29:14.183Z,12.50
2023-03-01T11:30:14.193Z,12.10
2023-03-01T11:31:14.277Z,10.80
2023-03-01T11:32:14.235Z,11.80
2023-03-01T11:33:14.340Z,10.70
2023-03-01T11:34:14.166Z,11.60
2023-03-01T11:35:14.141Z,11.10
2023-03-01T11:36:14.129Z,11.10
2023-03-01T11:37:14.126Z,10.80
2023-03-01T11:38:14.088Z,11.10
2023-03-01T11:39:14.073Z,10.70
2023-03-01T11:40:14.177Z,10.80
2023-03-01T11:41:14.076Z,10.70
2023-03-01T11:42:19.101Z,11.50
2023-03-01T11:43:15.141Z,13.30
2023-03-01T11:44:14.044Z,11.30
2023-03-01T11:45:14.032Z,11.50
2023-03-01T11:46:14.069Z,11.60
2023-03-01T11:47:14.293Z,13.80
2023-03-01T11:48:14.012Z,12.60
2023-03-01T11:49:13.986Z,10.50
2023-03-01T11:50:13.966Z,12.80
2023-03-01T11:51:15.104Z,10.70
2023-03-01T11:52:13.959Z,12.30
2023-03-01T11:53:13.941Z,11.20
2023-03-01T11:54:13.922Z,11.80
2023-03-01T11:55:13.908Z,11.40
2023-03-01T11:56:13.905Z,12.30
2023-03-01T11:57:13.941Z,12.00
2023-03-01T11:58:13.893Z,11.80
2023-03-01T11:59:15.200Z,13.20
2023-03-01T12:00:13.968Z,11.40
2023-03-01T12:01:15.030Z,12.20
2023-03-01T12:02:15.081Z,12.20
2023-03-01T12:03:15.059Z,10.80
2023-03-01T12:04:15.057Z,11.00
2023-03-01T12:05:15.349Z,11.50
2023-03-01T12:06:15.015Z,10.90
2023-03-01T12:07:15.021Z,12.00
2023-03-01T12:08:15.020Z,12.40
2023-03-01T12:09:15.024Z,11.80
2023-03-01T12:10:15.027Z,13.10
2023-03-01T12:11:14.977Z,12.70
2023-03-01T12:12:14.972Z,12.00
2023-03-01T12:13:15.016Z,12.00
2023-03-01T12:14:15.018Z,12.70
2023-03-01T12:15:14.952Z,11.20
2023-03-01T12:16:16.266Z,11.50
2023-03-01T12:17:14.920Z,11.80
2023-03-01T12:18:14.921Z,11.80
2023-03-01T12:19:14.892Z,13.70
2023-03-01T12:20:15.079Z,11.50
2023-03-01T12:21:14.823Z,11.70
2023-03-01T12:22:14.833Z,11.90
2023-03-01T12:23:20.394Z,10.90
2023-03-01T12:24:16.864Z,11.20
2023-03-01T12:25:15.820Z,13.60
2023-03-01T12:26:14.980Z,12.90
2023-03-01T12:27:15.003Z,10.90
2023-03-01T12:28:14.832Z,11.90
2023-03-01T12:29:14.851Z,11.50
2023-03-01T12:30:14.819Z,12.00
2023-03-01T12:31:14.888Z,11.00
2023-03-01T12:32:17.102Z,11.20
2023-03-01T12:33:18.501Z,11.90
2023-03-01T12:34:15.851Z,11.80
2023-03-01T12:35:14.797Z,12.90
2023-03-01T12:36:14.784Z,11.20
2023-03-01T12:37:14.742Z,11.70
2023-03-01T12:38:14.755Z,11.50
2023-03-01T12:39:14.704Z,12.60
2023-03-01T12:40:14.645Z,13.10
2023-03-01T12:41:14.673Z,11.80
2023-03-01T12:42:14.709Z,11.90
2023-03-01T12:43:14.644Z,11.60
2023-03-01T12:44:14.654Z,11.20
2023-03-01T12:45:14.675Z,12.20
2023-03-01T12:46:14.703Z,11.60
2023-03-01T12:47:14.627Z,12.30
2023-03-01T12:48:14.680Z,11.70
2023-03-01T12:49:14.615Z,11.80
2023-03-01T12:50:14.596Z,10.80
2023-03-01T12:51:14.574Z,11.00
2023-03-01T12:52:14.594Z,12.50
2023-03-01T12:53:14.587Z,10.90
2023-03-01T12:54:14.551Z,11.00
2023-03-01T12:55:14.566Z,11.50
2023-03-01T12:56:14.514Z,11.70
2023-03-01T12:57:14.500Z,11.30
2023-03-01T12:58:14.459Z,11.70
2023-03-01T12:59:14.506Z,11.60
2023-03-01T13:00:14.441Z,12.80
2023-03-01T13:01:14.479Z,11.90
2023-03-01T13:02:14.463Z,11.50
2023-03-01T13:03:14.437Z,13.00